sensor_id;sensor_type;location;lat;lon;timestamp;temperature;humidity
5248;DHT22;2644;52.420;13.580;2022-08-03T00:00:57;18.70;99.90
5248;DHT22;2644;52.420;13.580;2022-08-03T00:02:00;18.70;99.90
5248;DHT22;2644;52.420;13.580;2022-08-03T00:03:06;18.70;99.90
5248;DHT22;2644;52.420;13.580;2022-08-03T00:04:09;18.70;99.90
5248;DHT22;2644;52.420;13.580;2022-08-03T00:05:12;18.70;99.90
5248;DHT22;2644;52.420;13.580;2022-08-03T00:06:15;18.70;99.90
5248;DHT22;2644;52.420;13.580;2022-08-03T00:07:17;18.70;99.90
5248;DHT22;2644;52.420;13.580;2022-08-03T00:08:21;18.70;99.90
5248;DHT22;2644;52.420;13.580;2022-08-03T00:09:23;18.70;99.90
5248;DHT22;2644;52.420;13.580;2022-08-03T00:10:36;18.70;99.90
5248;DHT22;2644;52.420;13.580;2022-08-03T00:11:38;18.70;99.90
5248;DHT22;2644;52.420;13.580;2022-08-03T00:12:44;18.60;99.90
5248;DHT22;2644;52.420;13.580;2022-08-03T00:13:46;18.60;99.90
5248;DHT22;2644;52.420;13.580;2022-08-03T00:14:49;18.60;99.90
5248;DHT22;2644;52.420;13.580;2022-08-03T00:15:51;18.60;99.90
5248;DHT22;2644;52.420;13.580;2022-08-03T00:16:54;18.60;99.90
5248;DHT22;2644;52.420;13.580;2022-08-03T00:17:56;18.60;99.90
5248;DHT22;2644;52.420;13.580;2022-08-03T00:19:01;18.60;99.90
5248;DHT22;2644;52.420;13.580;2022-08-03T00:20:05;18.50;99.90
5248;DHT22;2644;52.420;13.580;2022-08-03T00:21:07;18.60;99.90
5248;DHT22;2644;52.420;13.580;2022-08-03T00:22:12;18.60;99.90
5248;DHT22;2644;52.420;13.580;2022-08-03T00:23:15;18.60;99.90
5248;DHT22;2644;52.420;13.580;2022-08-03T00:24:19;18.60;99.90
5248;DHT22;2644;52.420;13.580;2022-08-03T00:25:21;18.60;99.90
5248;DHT22;2644;52.420;13.580;2022-08-03T00:26:24;18.60;99.90
5248;DHT22;2644;52.420;13.580;2022-08-03T00:27:26;18.60;99.90
5248;DHT22;2644;52.420;13.580;2022-08-03T00:28:33;18.50;99.90
5248;DHT22;2644;52.420;13.580;2022-08-03T00:29:36;18.60;99.90
5248;DHT22;2644;52.420;13.580;2022-08-03T00:30:58;18.60;99.90
5248;DHT22;2644;52.420;13.580;2022-08-03T00:32:01;18.60;99.90
5248;DHT22;2644;52.420;13.580;2022-08-03T00:33:03;18.60;99.90
5248;DHT22;2644;52.420;13.580;2022-08-03T00:34:10;18.60;99.90
5248;DHT22;2644;52.420;13.580;2022-08-03T00:35:13;18.60;99.90
5248;DHT22;2644;52.420;13.580;2022-08-03T00:36:36;18.60;99.90
5248;DHT22;2644;52.420;13.580;2022-08-03T00:37:39;18.70;99.90
5248;DHT22;2644;52.420;13.580;2022-08-03T00:38:42;18.70;99.90
5248;DHT22;2644;52.420;13.580;2022-08-03T00:39:46;18.70;99.90
5248;DHT22;2644;52.420;13.580;2022-08-03T00:40:48;18.70;99.90
5248;DHT22;2644;52.420;13.580;2022-08-03T00:41:52;18.70;99.90
5248;DHT22;2644;52.420;13.580;2022-08-03T00:42:55;18.70;99.90
5248;DHT22;2644;52.420;13.580;2022-08-03T00:43:59;18.70;99.90
5248;DHT22;2644;52.420;13.580;2022-08-03T00:45:01;18.80;99.90
5248;DHT22;2644;52.420;13.580;2022-08-03T00:46:04;18.80;99.90
5248;DHT22;2644;52.420;13.580;2022-08-03T00:47:06;18.70;99.90
5248;DHT22;2644;52.420;13.580;2022-08-03T00:48:10;18.70;99.90
5248;DHT22;2644;52.420;13.580;2022-08-03T00:49:34;18.70;99.90
5248;DHT22;2644;52.420;13.580;2022-08-03T00:50:39;18.70;99.90
5248;DHT22;2644;52.420;13.580;2022-08-03T00:51:42;18.70;99.90
5248;DHT22;2644;52.420;13.580;2022-08-03T00:52:46;18.70;99.90
5248;DHT22;2644;52.420;13.580;2022-08-03T00:53:48;18.70;99.90
5248;DHT22;2644;52.420;13.580;2022-08-03T00:54:51;18.70;99.90
5248;DHT22;2644;52.420;13.580;2022-08-03T00:55:54;18.60;99.90
5248;DHT22;2644;52.420;13.580;2022-08-03T00:56:57;18.70;99.90
5248;DHT22;2644;52.420;13.580;2022-08-03T00:58:02;18.60;99.90
5248;DHT22;2644;52.420;13.580;2022-08-03T00:59:09;18.70;99.90
5248;DHT22;2644;52.420;13.580;2022-08-03T01:00:14;18.60;99.90
5248;DHT22;2644;52.420;13.580;2022-08-03T01:01:17;18.60;99.90
5248;DHT22;2644;52.420;13.580;2022-08-03T01:02:19;18.60;99.90
5248;DHT22;2644;52.420;13.580;2022-08-03T01:03:22;18.70;99.90
5248;DHT22;2644;52.420;13.580;2022-08-03T01:04:26;18.60;99.90
5248;DHT22;2644;52.420;13.580;2022-08-03T01:05:33;18.60;99.90
5248;DHT22;2644;52.420;13.580;2022-08-03T01:06:44;18.70;99.90
5248;DHT22;2644;52.420;13.580;2022-08-03T01:07:59;18.70;99.90
5248;DHT22;2644;52.420;13.580;2022-08-03T01:09:10;18.70;99.90
5248;DHT22;2644;52.420;13.580;2022-08-03T01:10:21;18.70;99.90
5248;DHT22;2644;52.420;13.580;2022-08-03T01:11:31;18.70;99.90
5248;DHT22;2644;52.420;13.580;2022-08-03T01:12:38;18.70;99.90
5248;DHT22;2644;52.420;13.580;2022-08-03T01:13:49;18.70;99.90
5248;DHT22;2644;52.420;13.580;2022-08-03T01:15:17;18.70;99.90
5248;DHT22;2644;52.420;13.580;2022-08-03T01:16:24;18.70;99.90
5248;DHT22;2644;52.420;13.580;2022-08-03T01:17:50;18.70;99.90
5248;DHT22;2644;52.420;13.580;2022-08-03T01:19:01;18.70;99.90
5248;DHT22;2644;52.420;13.580;2022-08-03T01:20:10;18.70;99.90
5248;DHT22;2644;52.420;13.580;2022-08-03T01:21:20;18.80;99.90
5248;DHT22;2644;52.420;13.580;2022-08-03T01:22:53;18.80;99.90
5248;DHT22;2644;52.420;13.580;2022-08-03T01:24:18;18.80;99.90
5248;DHT22;2644;52.420;13.580;2022-08-03T01:25:33;18.80;99.90
5248;DHT22;2644;52.420;13.580;2022-08-03T01:26:55;18.80;99.90
5248;DHT22;2644;52.420;13.580;2022-08-03T01:28:17;18.80;99.90
5248;DHT22;2644;52.420;13.580;2022-08-03T01:29:49;18.80;99.90
5248;DHT22;2644;52.420;13.580;2022-08-03T01:30:54;18.80;99.90
5248;DHT22;2644;52.420;13.580;2022-08-03T01:32:02;18.90;99.90
5248;DHT22;2644;52.420;13.580;2022-08-03T01:33:30;18.80;99.90
5248;DHT22;2644;52.420;13.580;2022-08-03T01:34:40;18.80;99.90
5248;DHT22;2644;52.420;13.580;2022-08-03T01:35:47;18.80;99.90
5248;DHT22;2644;52.420;13.580;2022-08-03T01:36:55;18.80;99.90
5248;DHT22;2644;52.420;13.580;2022-08-03T01:38:02;18.80;99.90
5248;DHT22;2644;52.420;13.580;2022-08-03T01:39:06;18.80;99.90
5248;DHT22;2644;52.420;13.580;2022-08-03T01:40:12;18.80;99.90
5248;DHT22;2644;52.420;13.580;2022-08-03T01:41:19;18.80;99.90
5248;DHT22;2644;52.420;13.580;2022-08-03T01:42:22;18.80;99.90
5248;DHT22;2644;52.420;13.580;2022-08-03T01:43:28;18.80;99.90
5248;DHT22;2644;52.420;13.580;2022-08-03T01:44:53;18.90;99.90
5248;DHT22;2644;52.420;13.580;2022-08-03T01:45:57;18.80;99.90
5248;DHT22;2644;52.420;13.580;2022-08-03T01:47:02;18.80;99.90
5248;DHT22;2644;52.420;13.580;2022-08-03T01:48:05;18.90;99.90
5248;DHT22;2644;52.420;13.580;2022-08-03T01:49:10;18.80;99.90
5248;DHT22;2644;52.420;13.580;2022-08-03T01:50:15;18.90;99.90
5248;DHT22;2644;52.420;13.580;2022-08-03T01:51:21;18.90;99.90
5248;DHT22;2644;52.420;13.580;2022-08-03T01:52:24;18.90;99.90
5248;DHT22;2644;52.420;13.580;2022-08-03T01:53:28;18.90;99.90
5248;DHT22;2644;52.420;13.580;2022-08-03T01:54:34;18.90;99.90
5248;DHT22;2644;52.420;13.580;2022-08-03T01:55:38;18.90;99.90
5248;DHT22;2644;52.420;13.580;2022-08-03T01:56:42;18.90;99.90
5248;DHT22;2644;52.420;13.580;2022-08-03T01:57:47;18.90;99.90
5248;DHT22;2644;52.420;13.580;2022-08-03T01:59:07;18.90;99.90
5248;DHT22;2644;52.420;13.580;2022-08-03T02:00:14;18.90;99.90
5248;DHT22;2644;52.420;13.580;2022-08-03T02:01:17;18.90;99.90
5248;DHT22;2644;52.420;13.580;2022-08-03T02:02:23;18.90;99.90
5248;DHT22;2644;52.420;13.580;2022-08-03T02:03:37;18.90;99.90
5248;DHT22;2644;52.420;13.580;2022-08-03T02:05:04;18.90;99.90
5248;DHT22;2644;52.420;13.580;2022-08-03T02:06:12;18.90;99.90
5248;DHT22;2644;52.420;13.580;2022-08-03T02:07:39;19.00;99.90
5248;DHT22;2644;52.420;13.580;2022-08-03T02:08:44;19.00;99.90
5248;DHT22;2644;52.420;13.580;2022-08-03T02:09:50;19.00;99.90
5248;DHT22;2644;52.420;13.580;2022-08-03T02:10:56;19.00;99.90
5248;DHT22;2644;52.420;13.580;2022-08-03T02:11:59;19.00;99.90
5248;DHT22;2644;52.420;13.580;2022-08-03T02:13:06;19.00;99.90
5248;DHT22;2644;52.420;13.580;2022-08-03T02:14:11;19.00;99.90
5248;DHT22;2644;52.420;13.580;2022-08-03T02:15:18;19.00;99.90
5248;DHT22;2644;52.420;13.580;2022-08-03T02:16:21;19.10;99.90
5248;DHT22;2644;52.420;13.580;2022-08-03T02:17:26;19.10;99.90
5248;DHT22;2644;52.420;13.580;2022-08-03T02:18:41;19.00;99.90
5248;DHT22;2644;52.420;13.580;2022-08-03T02:19:44;19.00;99.90
5248;DHT22;2644;52.420;13.580;2022-08-03T02:20:48;19.10;99.90
5248;DHT22;2644;52.420;13.580;2022-08-03T02:21:53;19.10;99.90
5248;DHT22;2644;52.420;13.580;2022-08-03T02:23:02;19.10;99.90
5248;DHT22;2644;52.420;13.580;2022-08-03T02:24:06;19.10;99.90
5248;DHT22;2644;52.420;13.580;2022-08-03T02:25:10;19.10;99.90
5248;DHT22;2644;52.420;13.580;2022-08-03T02:26:16;19.00;99.90
5248;DHT22;2644;52.420;13.580;2022-08-03T02:27:23;19.10;99.90
5248;DHT22;2644;52.420;13.580;2022-08-03T02:28:31;19.10;99.90
5248;DHT22;2644;52.420;13.580;2022-08-03T02:29:35;19.10;99.90
5248;DHT22;2644;52.420;13.580;2022-08-03T02:30:44;19.10;99.90
5248;DHT22;2644;52.420;13.580;2022-08-03T02:31:57;19.10;99.90
5248;DHT22;2644;52.420;13.580;2022-08-03T02:33:02;19.10;99.90
5248;DHT22;2644;52.420;13.580;2022-08-03T02:34:08;19.10;99.90
5248;DHT22;2644;52.420;13.580;2022-08-03T02:35:14;19.10;99.90
5248;DHT22;2644;52.420;13.580;2022-08-03T02:36:21;19.10;99.90
5248;DHT22;2644;52.420;13.580;2022-08-03T02:37:38;19.10;99.90
5248;DHT22;2644;52.420;13.580;2022-08-03T02:38:48;19.20;99.90
5248;DHT22;2644;52.420;13.580;2022-08-03T02:39:54;19.20;99.90
5248;DHT22;2644;52.420;13.580;2022-08-03T02:40:59;19.20;99.90
5248;DHT22;2644;52.420;13.580;2022-08-03T02:42:05;19.20;99.90
5248;DHT22;2644;52.420;13.580;2022-08-03T02:43:11;19.20;99.90
5248;DHT22;2644;52.420;13.580;2022-08-03T02:44:19;19.20;99.90
5248;DHT22;2644;52.420;13.580;2022-08-03T02:45:25;19.10;99.90
5248;DHT22;2644;52.420;13.580;2022-08-03T02:46:32;19.10;99.90
5248;DHT22;2644;52.420;13.580;2022-08-03T02:47:36;19.10;99.90
5248;DHT22;2644;52.420;13.580;2022-08-03T02:48:56;19.10;99.90
5248;DHT22;2644;52.420;13.580;2022-08-03T02:50:01;19.10;99.90
5248;DHT22;2644;52.420;13.580;2022-08-03T02:51:05;19.20;99.90
5248;DHT22;2644;52.420;13.580;2022-08-03T02:52:08;19.20;99.90
5248;DHT22;2644;52.420;13.580;2022-08-03T02:53:15;19.20;99.90
5248;DHT22;2644;52.420;13.580;2022-08-03T02:54:19;19.20;99.90
5248;DHT22;2644;52.420;13.580;2022-08-03T02:55:24;19.20;99.90
5248;DHT22;2644;52.420;13.580;2022-08-03T02:56:27;19.20;99.90
5248;DHT22;2644;52.420;13.580;2022-08-03T02:57:30;19.20;99.90
5248;DHT22;2644;52.420;13.580;2022-08-03T02:58:36;19.20;99.90
5248;DHT22;2644;52.420;13.580;2022-08-03T02:59:41;19.20;99.90
5248;DHT22;2644;52.420;13.580;2022-08-03T03:00:45;19.20;99.90
5248;DHT22;2644;52.420;13.580;2022-08-03T03:01:50;19.20;99.90
5248;DHT22;2644;52.420;13.580;2022-08-03T03:02:56;19.20;99.90
5248;DHT22;2644;52.420;13.580;2022-08-03T03:04:01;19.20;99.90
5248;DHT22;2644;52.420;13.580;2022-08-03T03:05:05;19.30;99.90
5248;DHT22;2644;52.420;13.580;2022-08-03T03:06:29;19.20;99.90
5248;DHT22;2644;52.420;13.580;2022-08-03T03:07:35;19.20;99.90
5248;DHT22;2644;52.420;13.580;2022-08-03T03:08:55;19.20;99.90
5248;DHT22;2644;52.420;13.580;2022-08-03T03:10:01;19.20;99.90
5248;DHT22;2644;52.420;13.580;2022-08-03T03:11:04;19.30;99.90
5248;DHT22;2644;52.420;13.580;2022-08-03T03:12:09;19.30;99.90
5248;DHT22;2644;52.420;13.580;2022-08-03T03:13:14;19.30;99.90
5248;DHT22;2644;52.420;13.580;2022-08-03T03:14:17;19.30;99.90
5248;DHT22;2644;52.420;13.580;2022-08-03T03:15:35;19.30;99.90
5248;DHT22;2644;52.420;13.580;2022-08-03T03:16:41;19.30;99.90
5248;DHT22;2644;52.420;13.580;2022-08-03T03:17:46;19.30;99.90
5248;DHT22;2644;52.420;13.580;2022-08-03T03:18:49;19.30;99.90
5248;DHT22;2644;52.420;13.580;2022-08-03T03:19:53;19.30;99.90
5248;DHT22;2644;52.420;13.580;2022-08-03T03:20:57;19.30;99.90
5248;DHT22;2644;52.420;13.580;2022-08-03T03:22:01;19.30;99.90
5248;DHT22;2644;52.420;13.580;2022-08-03T03:23:04;19.30;99.90
5248;DHT22;2644;52.420;13.580;2022-08-03T03:24:08;19.30;99.90
5248;DHT22;2644;52.420;13.580;2022-08-03T03:25:11;19.30;99.90
5248;DHT22;2644;52.420;13.580;2022-08-03T03:26:14;19.30;99.90
5248;DHT22;2644;52.420;13.580;2022-08-03T03:27:17;19.30;99.90
5248;DHT22;2644;52.420;13.580;2022-08-03T03:28:22;19.30;99.90
5248;DHT22;2644;52.420;13.580;2022-08-03T03:29:25;19.30;99.90
5248;DHT22;2644;52.420;13.580;2022-08-03T03:30:29;19.30;99.90
5248;DHT22;2644;52.420;13.580;2022-08-03T03:31:31;19.30;99.90
5248;DHT22;2644;52.420;13.580;2022-08-03T03:32:34;19.30;99.90
5248;DHT22;2644;52.420;13.580;2022-08-03T03:33:39;19.40;99.90
5248;DHT22;2644;52.420;13.580;2022-08-03T03:34:42;19.40;99.90
5248;DHT22;2644;52.420;13.580;2022-08-03T03:35:45;19.40;99.90
5248;DHT22;2644;52.420;13.580;2022-08-03T03:36:48;19.40;99.90
5248;DHT22;2644;52.420;13.580;2022-08-03T03:37:52;19.40;99.90
5248;DHT22;2644;52.420;13.580;2022-08-03T03:38:54;19.30;99.90
5248;DHT22;2644;52.420;13.580;2022-08-03T03:39:57;19.30;99.90
5248;DHT22;2644;52.420;13.580;2022-08-03T03:41:00;19.30;99.90
5248;DHT22;2644;52.420;13.580;2022-08-03T03:42:04;19.30;99.90
5248;DHT22;2644;52.420;13.580;2022-08-03T03:43:07;19.30;99.90
5248;DHT22;2644;52.420;13.580;2022-08-03T03:44:10;19.30;99.90
5248;DHT22;2644;52.420;13.580;2022-08-03T03:45:12;19.30;99.90
5248;DHT22;2644;52.420;13.580;2022-08-03T03:46:16;19.30;99.90
5248;DHT22;2644;52.420;13.580;2022-08-03T03:47:18;19.30;99.90
5248;DHT22;2644;52.420;13.580;2022-08-03T03:48:33;19.30;99.90
5248;DHT22;2644;52.420;13.580;2022-08-03T03:49:38;19.30;99.90
5248;DHT22;2644;52.420;13.580;2022-08-03T03:50:40;19.30;99.90
5248;DHT22;2644;52.420;13.580;2022-08-03T03:51:45;19.20;99.90
5248;DHT22;2644;52.420;13.580;2022-08-03T03:52:47;19.30;99.90
5248;DHT22;2644;52.420;13.580;2022-08-03T03:53:54;19.20;99.90
5248;DHT22;2644;52.420;13.580;2022-08-03T03:54:57;19.20;99.90
5248;DHT22;2644;52.420;13.580;2022-08-03T03:56:02;19.20;99.90
5248;DHT22;2644;52.420;13.580;2022-08-03T03:57:05;19.20;99.90
5248;DHT22;2644;52.420;13.580;2022-08-03T03:58:10;19.10;99.90
5248;DHT22;2644;52.420;13.580;2022-08-03T03:59:12;19.10;99.90
5248;DHT22;2644;52.420;13.580;2022-08-03T04:00:17;19.10;99.90
5248;DHT22;2644;52.420;13.580;2022-08-03T04:01:19;19.10;99.90
5248;DHT22;2644;52.420;13.580;2022-08-03T04:02:23;19.00;99.90
5248;DHT22;2644;52.420;13.580;2022-08-03T04:03:25;19.00;99.90
5248;DHT22;2644;52.420;13.580;2022-08-03T04:04:30;19.00;99.90
5248;DHT22;2644;52.420;13.580;2022-08-03T04:05:53;19.00;99.90
5248;DHT22;2644;52.420;13.580;2022-08-03T04:07:13;19.00;99.90
5248;DHT22;2644;52.420;13.580;2022-08-03T04:08:34;18.90;99.90
5248;DHT22;2644;52.420;13.580;2022-08-03T04:09:55;18.90;99.90
5248;DHT22;2644;52.420;13.580;2022-08-03T04:11:19;18.90;99.90
5248;DHT22;2644;52.420;13.580;2022-08-03T04:12:33;18.90;99.90
5248;DHT22;2644;52.420;13.580;2022-08-03T04:13:37;18.90;99.90
5248;DHT22;2644;52.420;13.580;2022-08-03T04:14:41;18.90;99.90
5248;DHT22;2644;52.420;13.580;2022-08-03T04:15:44;18.90;99.90
5248;DHT22;2644;52.420;13.580;2022-08-03T04:16:52;18.90;99.90
5248;DHT22;2644;52.420;13.580;2022-08-03T04:17:58;18.90;99.90
5248;DHT22;2644;52.420;13.580;2022-08-03T04:19:03;18.90;99.90
5248;DHT22;2644;52.420;13.580;2022-08-03T04:20:08;18.90;99.90
5248;DHT22;2644;52.420;13.580;2022-08-03T04:21:13;18.90;99.90
5248;DHT22;2644;52.420;13.580;2022-08-03T04:22:19;18.90;99.90
5248;DHT22;2644;52.420;13.580;2022-08-03T04:23:26;18.90;99.90
5248;DHT22;2644;52.420;13.580;2022-08-03T04:24:33;18.90;99.90
5248;DHT22;2644;52.420;13.580;2022-08-03T04:25:38;18.90;99.90
5248;DHT22;2644;52.420;13.580;2022-08-03T04:26:42;19.00;99.90
5248;DHT22;2644;52.420;13.580;2022-08-03T04:27:54;19.00;99.90
5248;DHT22;2644;52.420;13.580;2022-08-03T04:29:21;19.00;99.90
5248;DHT22;2644;52.420;13.580;2022-08-03T04:30:26;19.00;99.90
5248;DHT22;2644;52.420;13.580;2022-08-03T04:31:31;19.00;99.90
5248;DHT22;2644;52.420;13.580;2022-08-03T04:32:36;19.10;99.90
5248;DHT22;2644;52.420;13.580;2022-08-03T04:33:46;19.10;99.90
5248;DHT22;2644;52.420;13.580;2022-08-03T04:34:50;19.20;99.90
5248;DHT22;2644;52.420;13.580;2022-08-03T04:35:54;19.20;99.90
5248;DHT22;2644;52.420;13.580;2022-08-03T04:37:11;19.20;99.90
5248;DHT22;2644;52.420;13.580;2022-08-03T04:38:19;19.20;99.90
5248;DHT22;2644;52.420;13.580;2022-08-03T04:39:28;19.30;99.90
5248;DHT22;2644;52.420;13.580;2022-08-03T04:40:40;19.30;99.90
5248;DHT22;2644;52.420;13.580;2022-08-03T04:41:44;19.40;99.90
5248;DHT22;2644;52.420;13.580;2022-08-03T04:43:09;19.40;99.90
5248;DHT22;2644;52.420;13.580;2022-08-03T04:44:13;19.40;99.90
5248;DHT22;2644;52.420;13.580;2022-08-03T04:45:18;19.50;99.90
5248;DHT22;2644;52.420;13.580;2022-08-03T04:46:22;19.50;99.90
5248;DHT22;2644;52.420;13.580;2022-08-03T04:47:29;19.60;99.90
5248;DHT22;2644;52.420;13.580;2022-08-03T04:48:33;19.60;99.90
5248;DHT22;2644;52.420;13.580;2022-08-03T04:49:37;19.70;99.90
5248;DHT22;2644;52.420;13.580;2022-08-03T04:50:40;19.70;99.90
5248;DHT22;2644;52.420;13.580;2022-08-03T04:51:43;19.70;99.90
5248;DHT22;2644;52.420;13.580;2022-08-03T04:52:47;19.70;99.90
5248;DHT22;2644;52.420;13.580;2022-08-03T04:53:50;19.70;99.90
5248;DHT22;2644;52.420;13.580;2022-08-03T04:54:53;19.70;99.90
5248;DHT22;2644;52.420;13.580;2022-08-03T04:56:03;19.70;99.90
5248;DHT22;2644;52.420;13.580;2022-08-03T04:57:06;19.80;99.90
5248;DHT22;2644;52.420;13.580;2022-08-03T04:58:10;19.80;99.90
5248;DHT22;2644;52.420;13.580;2022-08-03T04:59:13;19.80;99.90
5248;DHT22;2644;52.420;13.580;2022-08-03T05:00:19;19.80;99.90
5248;DHT22;2644;52.420;13.580;2022-08-03T05:01:21;19.80;99.90
5248;DHT22;2644;52.420;13.580;2022-08-03T05:02:28;19.80;99.90
5248;DHT22;2644;52.420;13.580;2022-08-03T05:03:30;19.80;99.90
5248;DHT22;2644;52.420;13.580;2022-08-03T05:04:33;19.80;99.90
5248;DHT22;2644;52.420;13.580;2022-08-03T05:05:35;19.80;99.90
5248;DHT22;2644;52.420;13.580;2022-08-03T05:06:51;19.80;99.90
5248;DHT22;2644;52.420;13.580;2022-08-03T05:07:57;19.80;99.90
5248;DHT22;2644;52.420;13.580;2022-08-03T05:09:02;19.90;99.90
5248;DHT22;2644;52.420;13.580;2022-08-03T05:10:07;19.90;99.90
5248;DHT22;2644;52.420;13.580;2022-08-03T05:11:17;19.90;99.90
5248;DHT22;2644;52.420;13.580;2022-08-03T05:12:20;19.90;99.90
5248;DHT22;2644;52.420;13.580;2022-08-03T05:13:22;20.00;99.90
5248;DHT22;2644;52.420;13.580;2022-08-03T05:14:25;20.00;99.90
5248;DHT22;2644;52.420;13.580;2022-08-03T05:15:29;20.00;99.90
5248;DHT22;2644;52.420;13.580;2022-08-03T05:16:31;20.10;99.90
5248;DHT22;2644;52.420;13.580;2022-08-03T05:17:34;20.10;99.90
5248;DHT22;2644;52.420;13.580;2022-08-03T05:18:37;20.10;99.90
5248;DHT22;2644;52.420;13.580;2022-08-03T05:19:40;20.10;99.90
5248;DHT22;2644;52.420;13.580;2022-08-03T05:20:42;20.20;99.90
5248;DHT22;2644;52.420;13.580;2022-08-03T05:21:46;20.10;99.90
5248;DHT22;2644;52.420;13.580;2022-08-03T05:22:53;20.20;99.90
5248;DHT22;2644;52.420;13.580;2022-08-03T05:23:58;20.30;99.90
5248;DHT22;2644;52.420;13.580;2022-08-03T05:25:01;20.30;99.90
5248;DHT22;2644;52.420;13.580;2022-08-03T05:26:03;20.30;99.90
5248;DHT22;2644;52.420;13.580;2022-08-03T05:27:07;20.30;99.90
5248;DHT22;2644;52.420;13.580;2022-08-03T05:28:09;20.30;99.90
5248;DHT22;2644;52.420;13.580;2022-08-03T05:29:12;20.30;99.90
5248;DHT22;2644;52.420;13.580;2022-08-03T05:30:14;20.40;99.90
5248;DHT22;2644;52.420;13.580;2022-08-03T05:31:34;20.40;99.90
5248;DHT22;2644;52.420;13.580;2022-08-03T05:32:37;20.40;99.90
5248;DHT22;2644;52.420;13.580;2022-08-03T05:33:39;20.40;99.90
5248;DHT22;2644;52.420;13.580;2022-08-03T05:34:44;20.50;99.90
5248;DHT22;2644;52.420;13.580;2022-08-03T05:35:46;20.50;99.90
5248;DHT22;2644;52.420;13.580;2022-08-03T05:37:04;20.50;99.90
5248;DHT22;2644;52.420;13.580;2022-08-03T05:38:08;20.50;99.90
5248;DHT22;2644;52.420;13.580;2022-08-03T05:39:13;20.50;99.90
5248;DHT22;2644;52.420;13.580;2022-08-03T05:40:16;20.60;99.90
5248;DHT22;2644;52.420;13.580;2022-08-03T05:41:19;20.60;99.90
5248;DHT22;2644;52.420;13.580;2022-08-03T05:42:38;20.60;99.90
5248;DHT22;2644;52.420;13.580;2022-08-03T05:43:41;20.70;99.90
5248;DHT22;2644;52.420;13.580;2022-08-03T05:44:44;20.70;99.90
5248;DHT22;2644;52.420;13.580;2022-08-03T05:45:47;20.70;99.90
5248;DHT22;2644;52.420;13.580;2022-08-03T05:47:09;20.80;99.90
5248;DHT22;2644;52.420;13.580;2022-08-03T05:48:12;20.80;99.90
5248;DHT22;2644;52.420;13.580;2022-08-03T05:49:15;20.90;99.90
5248;DHT22;2644;52.420;13.580;2022-08-03T05:50:19;20.90;99.90
5248;DHT22;2644;52.420;13.580;2022-08-03T05:51:21;21.00;99.90
5248;DHT22;2644;52.420;13.580;2022-08-03T05:52:24;21.00;99.90
5248;DHT22;2644;52.420;13.580;2022-08-03T05:53:27;21.10;99.90
5248;DHT22;2644;52.420;13.580;2022-08-03T05:54:31;21.10;99.90
5248;DHT22;2644;52.420;13.580;2022-08-03T05:55:54;21.10;99.90
5248;DHT22;2644;52.420;13.580;2022-08-03T05:57:14;21.20;99.90
5248;DHT22;2644;52.420;13.580;2022-08-03T05:58:16;21.30;99.90
5248;DHT22;2644;52.420;13.580;2022-08-03T05:59:19;21.30;99.90
5248;DHT22;2644;52.420;13.580;2022-08-03T06:00:39;21.40;99.90
5248;DHT22;2644;52.420;13.580;2022-08-03T06:01:42;21.50;99.90
5248;DHT22;2644;52.420;13.580;2022-08-03T06:02:44;21.50;99.90
5248;DHT22;2644;52.420;13.580;2022-08-03T06:03:48;21.60;99.90
5248;DHT22;2644;52.420;13.580;2022-08-03T06:04:51;21.70;99.70
5248;DHT22;2644;52.420;13.580;2022-08-03T06:05:54;21.70;99.40
5248;DHT22;2644;52.420;13.580;2022-08-03T06:07:01;21.80;99.30
5248;DHT22;2644;52.420;13.580;2022-08-03T06:08:04;21.80;99.40
5248;DHT22;2644;52.420;13.580;2022-08-03T06:09:06;21.90;99.10
5248;DHT22;2644;52.420;13.580;2022-08-03T06:10:12;22.00;99.00
5248;DHT22;2644;52.420;13.580;2022-08-03T06:11:34;22.20;98.30
5248;DHT22;2644;52.420;13.580;2022-08-03T06:12:37;22.30;98.40
5248;DHT22;2644;52.420;13.580;2022-08-03T06:13:42;22.50;98.30
5248;DHT22;2644;52.420;13.580;2022-08-03T06:14:46;22.60;98.00
5248;DHT22;2644;52.420;13.580;2022-08-03T06:15:48;22.80;97.70
5248;DHT22;2644;52.420;13.580;2022-08-03T06:16:51;23.00;97.50
5248;DHT22;2644;52.420;13.580;2022-08-03T06:17:59;23.10;96.90
5248;DHT22;2644;52.420;13.580;2022-08-03T06:19:03;23.40;97.10
5248;DHT22;2644;52.420;13.580;2022-08-03T06:20:06;23.80;97.40
5248;DHT22;2644;52.420;13.580;2022-08-03T06:21:09;24.10;97.40
5248;DHT22;2644;52.420;13.580;2022-08-03T06:22:17;24.40;96.90
5248;DHT22;2644;52.420;13.580;2022-08-03T06:23:19;24.80;95.80
5248;DHT22;2644;52.420;13.580;2022-08-03T06:24:22;25.10;95.40
5248;DHT22;2644;52.420;13.580;2022-08-03T06:25:27;25.60;95.20
5248;DHT22;2644;52.420;13.580;2022-08-03T06:26:31;25.90;94.50
5248;DHT22;2644;52.420;13.580;2022-08-03T06:27:35;26.20;93.90
5248;DHT22;2644;52.420;13.580;2022-08-03T06:28:40;26.70;93.20
5248;DHT22;2644;52.420;13.580;2022-08-03T06:29:54;27.00;93.00
5248;DHT22;2644;52.420;13.580;2022-08-03T06:30:58;27.30;91.80
5248;DHT22;2644;52.420;13.580;2022-08-03T06:32:00;27.70;90.90
5248;DHT22;2644;52.420;13.580;2022-08-03T06:33:03;28.00;90.40
5248;DHT22;2644;52.420;13.580;2022-08-03T06:34:09;28.10;90.40
5248;DHT22;2644;52.420;13.580;2022-08-03T06:35:32;28.30;89.50
5248;DHT22;2644;52.420;13.580;2022-08-03T06:36:38;28.50;88.30
5248;DHT22;2644;52.420;13.580;2022-08-03T06:37:43;28.90;87.20
5248;DHT22;2644;52.420;13.580;2022-08-03T06:38:46;29.10;86.00
5248;DHT22;2644;52.420;13.580;2022-08-03T06:39:48;29.30;84.00
5248;DHT22;2644;52.420;13.580;2022-08-03T06:40:53;29.60;79.60
5248;DHT22;2644;52.420;13.580;2022-08-03T06:41:55;29.80;76.60
5248;DHT22;2644;52.420;13.580;2022-08-03T06:43:00;29.90;75.40
5248;DHT22;2644;52.420;13.580;2022-08-03T06:44:04;30.10;74.60
5248;DHT22;2644;52.420;13.580;2022-08-03T06:45:07;30.20;73.80
5248;DHT22;2644;52.420;13.580;2022-08-03T06:46:11;30.40;75.20
5248;DHT22;2644;52.420;13.580;2022-08-03T06:47:13;30.70;73.90
5248;DHT22;2644;52.420;13.580;2022-08-03T06:48:16;30.80;73.40
5248;DHT22;2644;52.420;13.580;2022-08-03T06:49:18;30.80;72.50
5248;DHT22;2644;52.420;13.580;2022-08-03T06:50:22;31.00;71.70
5248;DHT22;2644;52.420;13.580;2022-08-03T06:51:27;31.00;69.80
5248;DHT22;2644;52.420;13.580;2022-08-03T06:52:52;31.30;68.70
5248;DHT22;2644;52.420;13.580;2022-08-03T06:53:55;31.70;66.40
5248;DHT22;2644;52.420;13.580;2022-08-03T06:54:57;31.80;66.00
5248;DHT22;2644;52.420;13.580;2022-08-03T06:56:03;32.10;66.70
5248;DHT22;2644;52.420;13.580;2022-08-03T06:57:05;31.90;65.80
5248;DHT22;2644;52.420;13.580;2022-08-03T06:58:10;32.10;64.90
5248;DHT22;2644;52.420;13.580;2022-08-03T06:59:12;32.10;63.20
5248;DHT22;2644;52.420;13.580;2022-08-03T07:00:36;32.20;62.10
5248;DHT22;2644;52.420;13.580;2022-08-03T07:01:39;32.30;62.80
5248;DHT22;2644;52.420;13.580;2022-08-03T07:02:41;32.40;61.00
5248;DHT22;2644;52.420;13.580;2022-08-03T07:03:44;32.60;60.90
5248;DHT22;2644;52.420;13.580;2022-08-03T07:04:53;32.70;60.30
5248;DHT22;2644;52.420;13.580;2022-08-03T07:05:56;33.00;59.40
5248;DHT22;2644;52.420;13.580;2022-08-03T07:06:59;33.30;58.40